Time;durP1;ratioP1;P1;durP2;ratioP2;P2;SDS_P1;SDS_P2;PMS_P1;PMS_P2;Temp;Humidity;BMP_temperature;BMP_pressure;BME280_temperature;BME280_humidity;BME280_pressure;Samples;Min_cycle;Max_cycle;Signal;HPM_P1;HPM_P2
2023/08/31 00:00:53;;;;;;;0.10;0.10;;;15.70;51.70;;;;;;5051307;28;20215;-59
2023/08/31 00:03:24;;;;;;;0.10;0.10;;;15.70;51.60;;;;;;5051722;28;20207;-60
2023/08/31 00:05:54;;;;;;;0.10;0.10;;;15.70;51.60;;;;;;5051485;28;20195;-60
2023/08/31 00:08:25;;;;;;;0.10;0.10;;;15.80;51.70;;;;;;5051861;28;20222;-59
2023/08/31 00:11:03;;;;;;;0.10;0.10;;;15.80;51.70;;;;;;5051207;28;20270;-59
2023/08/31 00:13:34;;;;;;;0.10;0.10;;;15.80;51.70;;;;;;5051553;28;20240;-59
2023/08/31 00:16:04;;;;;;;0.10;0.10;;;15.80;51.70;;;;;;5051296;28;20203;-59
2023/08/31 00:18:35;;;;;;;0.10;0.10;;;15.90;51.70;;;;;;5051209;28;20206;-60
2023/08/31 00:21:06;;;;;;;0.13;0.13;;;15.90;51.70;;;;;;5050910;28;20203;-60
2023/08/31 00:23:37;;;;;;;0.10;0.10;;;15.90;51.80;;;;;;5050594;28;20291;-59
2023/08/31 00:26:10;;;;;;;0.10;0.10;;;16.00;51.90;;;;;;5050991;28;20276;-60
2023/08/31 00:28:42;;;;;;;0.00;0.00;;;16.00;51.90;;;;;;5050471;28;20218;-60
2023/08/31 00:31:12;;;;;;;0.10;0.10;;;16.00;51.80;;;;;;5051096;28;20191;-60
2023/08/31 00:33:43;;;;;;;0.00;0.00;;;16.00;51.90;;;;;;5050697;28;20713;-59
2023/08/31 00:36:13;;;;;;;0.10;0.10;;;16.00;51.80;;;;;;5048693;28;20245;-60
2023/08/31 00:38:44;;;;;;;0.10;0.10;;;16.00;51.70;;;;;;5054296;28;20610;-60
2023/08/31 00:41:16;;;;;;;0.05;0.05;;;16.10;51.80;;;;;;5054664;28;20575;-60
2023/08/31 00:43:47;;;;;;;0.10;0.10;;;16.10;51.70;;;;;;5054625;28;20195;-60
2023/08/31 00:46:18;;;;;;;0.10;0.10;;;16.20;51.80;;;;;;5054684;28;20200;-59
2023/08/31 00:48:48;;;;;;;0.10;0.10;;;16.20;51.80;;;;;;5054628;28;20229;-60
2023/08/31 00:51:19;;;;;;;0.10;0.10;;;16.20;51.80;;;;;;5055221;28;20199;-60
2023/08/31 00:53:53;;;;;;;0.10;0.10;;;16.30;51.90;;;;;;5055058;28;20199;-60
2023/08/31 00:56:25;;;;;;;0.10;0.10;;;16.30;51.90;;;;;;5054890;28;20294;-60
2023/08/31 00:58:56;;;;;;;0.10;0.10;;;16.30;51.90;;;;;;5054792;28;20212;-60
2023/08/31 01:01:37;;;;;;;0.10;0.10;;;16.30;51.80;;;;;;5054454;28;20206;-60
2023/08/31 01:04:19;;;;;;;0.00;0.00;;;16.40;51.90;;;;;;5054052;28;20199;-60
2023/08/31 01:07:00;;;;;;;0.10;0.10;;;16.40;51.90;;;;;;5054638;28;20241;-59
2023/08/31 01:09:37;;;;;;;0.10;0.10;;;16.40;51.80;;;;;;5054191;28;20280;-59
2023/08/31 01:12:12;;;;;;;0.08;0.08;;;16.50;51.90;;;;;;5054054;28;20211;-60
2023/08/31 01:14:48;;;;;;;0.10;0.10;;;16.50;51.90;;;;;;5053836;28;20202;-59
2023/08/31 01:17:20;;;;;;;0.10;0.10;;;16.50;51.90;;;;;;5054286;28;20191;-60
2023/08/31 01:19:52;;;;;;;0.05;0.05;;;16.50;51.80;;;;;;5054184;28;20277;-60
2023/08/31 01:22:33;;;;;;;0.10;0.10;;;16.50;51.80;;;;;;5054000;28;20707;-60
2023/08/31 01:25:08;;;;;;;0.10;0.10;;;16.60;51.90;;;;;;5054122;28;20195;-60
2023/08/31 01:27:40;;;;;;;0.10;0.10;;;16.60;51.80;;;;;;5053672;28;20233;-59
2023/08/31 01:30:11;;;;;;;0.10;0.10;;;16.70;51.90;;;;;;5053724;28;20226;-60
2023/08/31 01:32:47;;;;;;;0.10;0.10;;;16.60;51.80;;;;;;5053429;28;20199;-59
2023/08/31 01:35:19;;;;;;;0.10;0.10;;;16.70;51.80;;;;;;5052846;28;20674;-60
2023/08/31 01:37:54;;;;;;;0.10;0.10;;;16.70;51.80;;;;;;5053946;28;20203;-60
2023/08/31 01:40:34;;;;;;;0.00;0.00;;;16.70;51.80;;;;;;5053872;28;20707;-60
2023/08/31 01:43:05;;;;;;;0.10;0.10;;;16.80;51.90;;;;;;5053979;28;20206;-59
2023/08/31 01:45:37;;;;;;;0.10;0.10;;;16.80;51.80;;;;;;5054188;28;20195;-60
2023/08/31 01:48:08;;;;;;;0.00;0.00;;;16.80;51.80;;;;;;5053524;28;20219;-60
2023/08/31 01:50:39;;;;;;;0.10;0.10;;;16.90;51.90;;;;;;5052204;28;20273;-60
2023/08/31 01:53:10;;;;;;;0.00;0.00;;;16.90;51.90;;;;;;5053724;28;20222;-62
2023/08/31 01:55:42;;;;;;;0.10;0.10;;;16.90;51.80;;;;;;5053485;28;20253;-61
2023/08/31 01:58:13;;;;;;;0.10;0.10;;;16.90;51.80;;;;;;5053349;28;20249;-61
2023/08/31 02:00:44;;;;;;;0.00;0.00;;;17.00;51.80;;;;;;5052864;28;20215;-62
2023/08/31 02:03:15;;;;;;;0.10;0.10;;;17.00;51.80;;;;;;5052872;28;20257;-61
2023/08/31 02:05:45;;;;;;;0.05;0.05;;;17.00;51.70;;;;;;5053221;28;20610;-62
2023/08/31 02:08:17;;;;;;;0.10;0.10;;;17.10;51.70;;;;;;5053541;28;20292;-60
2023/08/31 02:10:50;;;;;;;0.10;0.10;;;17.10;51.70;;;;;;5053246;28;20281;-60
2023/08/31 02:13:21;;;;;;;0.00;0.00;;;17.10;51.80;;;;;;5053149;28;20286;-61
2023/08/31 02:15:55;;;;;;;0.10;0.10;;;17.10;51.70;;;;;;5053044;28;20191;-61
2023/08/31 02:18:26;;;;;;;0.10;0.10;;;17.20;51.80;;;;;;5053243;28;20229;-61
2023/08/31 02:20:57;;;;;;;0.10;0.10;;;17.20;51.70;;;;;;5053232;28;20216;-61
2023/08/31 02:23:27;;;;;;;0.20;0.20;;;17.30;51.80;;;;;;5053152;28;20597;-61
2023/08/31 02:26:00;;;;;;;0.10;0.10;;;17.30;51.70;;;;;;5052894;28;20671;-60
2023/08/31 02:28:30;;;;;;;0.05;0.05;;;17.30;51.70;;;;;;5040748;28;20227;-61
2023/08/31 02:31:05;;;;;;;0.00;0.00;;;17.40;51.70;;;;;;5052555;28;20188;-62
2023/08/31 02:33:36;;;;;;;0.10;0.10;;;17.40;51.70;;;;;;5052538;28;20290;-61
2023/08/31 02:36:06;;;;;;;0.10;0.10;;;17.40;51.60;;;;;;5053119;28;20200;-61
2023/08/31 02:38:37;;;;;;;0.10;0.10;;;17.40;51.60;;;;;;5051951;28;20253;-60
2023/08/31 02:41:09;;;;;;;0.10;0.10;;;17.50;51.70;;;;;;5052978;28;20246;-61
2023/08/31 02:43:40;;;;;;;0.13;0.13;;;17.50;51.70;;;;;;5052868;28;20249;-62
2023/08/31 02:46:10;;;;;;;0.10;0.10;;;17.50;51.70;;;;;;5052504;28;20261;-60
2023/08/31 02:48:41;;;;;;;0.10;0.10;;;17.50;51.70;;;;;;5052269;28;20227;-61
2023/08/31 02:51:12;;;;;;;0.10;0.10;;;17.60;51.80;;;;;;5052595;28;20253;-61
2023/08/31 02:53:42;;;;;;;0.10;0.10;;;17.60;51.70;;;;;;5052499;28;20199;-62
2023/08/31 02:56:15;;;;;;;0.10;0.10;;;17.60;51.70;;;;;;5052375;28;20245;-61
2023/08/31 02:58:45;;;;;;;0.00;0.00;;;17.70;51.70;;;;;;5052380;28;20199;-62
2023/08/31 03:01:16;;;;;;;0.10;0.10;;;17.70;51.60;;;;;;5052130;28;20264;-62
2023/08/31 03:03:47;;;;;;;0.10;0.10;;;17.70;51.60;;;;;;5051799;28;20192;-61
2023/08/31 03:06:18;;;;;;;0.10;0.10;;;17.80;51.60;;;;;;5052242;28;20721;-61
2023/08/31 03:08:49;;;;;;;0.10;0.10;;;17.80;51.60;;;;;;5051847;28;20219;-61
2023/08/31 03:11:21;;;;;;;0.00;0.00;;;17.90;51.60;;;;;;5052193;28;20227;-61
2023/08/31 03:13:52;;;;;;;0.10;0.10;;;17.90;51.60;;;;;;5052320;28;20746;-61
2023/08/31 03:16:22;;;;;;;0.10;0.10;;;17.90;51.60;;;;;;5051472;28;20195;-59
2023/08/31 03:18:53;;;;;;;0.10;0.10;;;18.00;51.50;;;;;;5051143;28;20223;-59
2023/08/31 03:21:23;;;;;;;0.10;0.10;;;18.00;51.50;;;;;;5051168;28;20199;-58
2023/08/31 03:23:54;;;;;;;0.10;0.10;;;18.00;51.50;;;;;;5051251;28;20264;-58
2023/08/31 03:26:26;;;;;;;0.10;0.10;;;18.10;51.50;;;;;;5051394;28;20265;-59
2023/08/31 03:28:57;;;;;;;0.00;0.00;;;18.10;51.50;;;;;;5051116;28;20231;-61
2023/08/31 03:31:32;;;;;;;0.10;0.10;;;18.10;51.50;;;;;;5050880;28;20198;-61
2023/08/31 03:34:03;;;;;;;0.00;0.00;;;18.20;51.40;;;;;;5051387;28;20682;-61
2023/08/31 03:36:34;;;;;;;0.00;0.00;;;18.20;51.30;;;;;;5051324;28;20222;-59
2023/08/31 03:39:04;;;;;;;0.03;0.03;;;18.20;51.20;;;;;;5051332;28;20215;-59
2023/08/31 03:41:37;;;;;;;0.10;0.10;;;18.30;51.10;;;;;;5051187;28;20275;-59
2023/08/31 03:44:07;;;;;;;0.00;0.00;;;18.30;51.10;;;;;;5052293;28;20200;-59
2023/08/31 03:46:38;;;;;;;0.10;0.10;;;18.30;51.10;;;;;;5051330;28;20261;-59
2023/08/31 03:49:09;;;;;;;0.10;0.10;;;18.40;51.10;;;;;;5051144;28;20296;-59
2023/08/31 03:51:39;;;;;;;0.10;0.10;;;18.40;51.00;;;;;;5051710;28;20233;-60
2023/08/31 03:54:10;;;;;;;0.10;0.10;;;18.50;51.00;;;;;;5051938;28;20200;-61
2023/08/31 03:56:42;;;;;;;0.00;0.00;;;18.50;50.90;;;;;;5853472;22;20232;-59
2023/08/31 03:59:13;;;;;;;0.10;0.10;;;18.50;51.10;;;;;;5051535;22;20697;-59
2023/08/31 04:01:44;;;;;;;0.10;0.10;;;18.60;51.10;;;;;;5049682;28;20213;-55
2023/08/31 04:04:14;;;;;;;0.10;0.10;;;18.60;51.10;;;;;;5051455;28;20261;-57
2023/08/31 04:06:45;;;;;;;0.10;0.10;;;18.70;51.10;;;;;;5051415;28;20292;-57
2023/08/31 04:09:15;;;;;;;0.10;0.10;;;18.70;51.10;;;;;;5051297;28;20284;-55
2023/08/31 04:11:48;;;;;;;0.00;0.00;;;18.80;51.20;;;;;;5051732;28;20692;-57
2023/08/31 04:14:19;;;;;;;0.00;0.00;;;18.80;51.10;;;;;;5055630;28;20199;-57
2023/08/31 04:16:50;;;;;;;0.10;0.10;;;18.80;51.00;;;;;;5055120;28;20645;-57
2023/08/31 04:19:20;;;;;;;0.10;0.10;;;18.90;51.00;;;;;;5055304;28;20261;-57
2023/08/31 04:21:51;;;;;;;0.10;0.10;;;18.90;50.90;;;;;;5054925;28;20199;-57
2023/08/31 04:24:21;;;;;;;0.10;0.10;;;18.90;50.90;;;;;;5055065;28;20195;-57
2023/08/31 04:26:55;;;;;;;0.10;0.10;;;19.00;50.90;;;;;;5055006;28;20215;-57
2023/08/31 04:29:26;;;;;;;0.08;0.08;;;19.00;50.90;;;;;;5054463;28;20288;-57
2023/08/31 04:31:56;;;;;;;0.10;0.10;;;19.00;50.80;;;;;;5055041;28;20269;-56
2023/08/31 04:34:27;;;;;;;0.00;0.00;;;19.00;50.80;;;;;;5055064;28;20269;-56
2023/08/31 04:36:58;;;;;;;0.00;0.00;;;19.10;50.90;;;;;;5054901;28;20220;-56
2023/08/31 04:39:28;;;;;;;0.00;0.00;;;19.10;50.70;;;;;;5054963;28;20651;-57
2023/08/31 04:42:01;;;;;;;0.00;0.00;;;19.10;50.70;;;;;;5055036;28;20199;-57
2023/08/31 04:44:31;;;;;;;0.10;0.10;;;19.20;50.70;;;;;;5054543;28;20662;-57
2023/08/31 04:47:02;;;;;;;0.10;0.10;;;19.20;50.60;;;;;;5054717;28;20597;-56
2023/08/31 04:49:32;;;;;;;0.10;0.10;;;19.20;50.50;;;;;;5054465;28;20276;-56
2023/08/31 04:52:03;;;;;;;0.00;0.00;;;19.20;50.80;;;;;;5054947;28;20196;-57
2023/08/31 04:54:34;;;;;;;0.10;0.10;;;19.20;51.10;;;;;;5054676;28;20278;-57
2023/08/31 04:57:07;;;;;;;0.00;0.00;;;19.30;50.60;;;;;;5054926;28;20215;-56
2023/08/31 04:59:37;;;;;;;0.00;0.00;;;19.30;50.50;;;;;;5053943;28;20200;-56
2023/08/31 05:02:08;;;;;;;0.00;0.00;;;19.30;50.50;;;;;;5054452;28;20249;-57
2023/08/31 05:04:39;;;;;;;0.10;0.10;;;19.30;50.50;;;;;;5054560;28;20257;-58
2023/08/31 05:07:09;;;;;;;0.00;0.00;;;19.40;50.50;;;;;;5054242;28;20302;-56
2023/08/31 05:09:40;;;;;;;0.00;0.00;;;19.40;50.60;;;;;;5053954;28;20262;-57
2023/08/31 05:12:13;;;;;;;0.00;0.00;;;19.40;50.60;;;;;;5054320;28;20192;-57
2023/08/31 05:14:43;;;;;;;0.10;0.10;;;19.40;50.60;;;;;;5054234;28;20199;-57
2023/08/31 05:17:14;;;;;;;0.00;0.00;;;19.40;50.60;;;;;;5053939;28;20215;-57
2023/08/31 05:19:44;;;;;;;0.00;0.00;;;19.50;50.70;;;;;;5054691;28;20199;-55
2023/08/31 05:22:15;;;;;;;0.10;0.10;;;19.50;50.70;;;;;;5054182;28;20691;-58
2023/08/31 05:24:46;;;;;;;0.00;0.00;;;19.50;50.60;;;;;;5052908;28;20596;-57
2023/08/31 05:27:18;;;;;;;0.10;0.10;;;19.50;50.40;;;;;;5053965;28;20693;-57
2023/08/31 05:29:49;;;;;;;0.00;0.00;;;19.50;50.40;;;;;;5053082;28;20235;-58
2023/08/31 05:32:19;;;;;;;0.10;0.10;;;19.50;50.40;;;;;;5054111;28;20206;-58
2023/08/31 05:34:50;;;;;;;0.10;0.10;;;19.50;50.40;;;;;;5054244;28;20206;-57
2023/08/31 05:37:21;;;;;;;0.10;0.10;;;19.50;50.30;;;;;;5053962;28;20219;-58
2023/08/31 05:39:52;;;;;;;0.10;0.10;;;19.50;50.30;;;;;;5054022;28;20200;-56
2023/08/31 05:42:24;;;;;;;0.00;0.00;;;19.50;50.30;;;;;;5053602;28;20203;-57
2023/08/31 05:44:55;;;;;;;0.00;0.00;;;19.50;50.40;;;;;;5053448;28;20192;-58
2023/08/31 05:47:25;;;;;;;0.00;0.00;;;19.50;50.50;;;;;;5053843;28;20216;-58
2023/08/31 05:49:56;;;;;;;0.00;0.00;;;19.50;50.50;;;;;;5053971;28;20223;-58
2023/08/31 05:52:26;;;;;;;0.10;0.10;;;19.60;50.40;;;;;;5053573;28;20199;-58
2023/08/31 05:54:57;;;;;;;0.10;0.10;;;19.60;50.30;;;;;;5053376;28;20206;-58
2023/08/31 05:57:30;;;;;;;0.00;0.00;;;19.60;50.20;;;;;;5053691;28;20216;-58
2023/08/31 06:00:00;;;;;;;0.00;0.00;;;19.50;50.20;;;;;;5053302;28;20199;-58
2023/08/31 06:02:31;;;;;;;0.03;0.03;;;19.50;50.10;;;;;;5053220;28;20264;-58
2023/08/31 06:05:01;;;;;;;0.00;0.00;;;19.50;50.10;;;;;;5053265;28;20246;-57
2023/08/31 06:07:32;;;;;;;0.00;0.00;;;19.50;50.10;;;;;;5053506;28;20269;-58
2023/08/31 06:10:03;;;;;;;0.10;0.10;;;19.50;50.70;;;;;;5053230;28;20269;-58
2023/08/31 06:12:35;;;;;;;0.10;0.10;;;19.50;50.20;;;;;;5053119;28;20288;-58
2023/08/31 06:15:08;;;;;;;0.00;0.00;;;19.50;50.20;;;;;;5053284;28;20567;-58
2023/08/31 06:17:38;;;;;;;0.00;0.00;;;19.50;50.20;;;;;;5052959;28;20277;-58
2023/08/31 06:20:10;;;;;;;0.00;0.00;;;19.50;50.30;;;;;;5052989;28;20281;-57
2023/08/31 06:22:40;;;;;;;0.00;0.00;;;19.40;50.20;;;;;;5052588;28;20199;-58
2023/08/31 06:25:11;;;;;;;0.10;0.10;;;19.40;50.20;;;;;;5052818;28;20195;-58
2023/08/31 06:27:44;;;;;;;0.10;0.10;;;19.40;50.10;;;;;;5052801;28;20207;-57
2023/08/31 06:30:16;;;;;;;0.00;0.00;;;19.40;50.00;;;;;;5045512;28;20235;-57
2023/08/31 06:32:47;;;;;;;0.00;0.00;;;19.40;50.00;;;;;;5038679;28;20261;-58
2023/08/31 06:35:19;;;;;;;0.10;0.10;;;19.40;50.00;;;;;;5032370;28;20207;-57
2023/08/31 06:37:50;;;;;;;0.10;0.10;;;19.40;49.90;;;;;;5046842;28;20223;-59
2023/08/31 06:40:21;;;;;;;0.10;0.10;;;19.40;49.90;;;;;;5046170;28;20242;-58
2023/08/31 06:42:53;;;;;;;0.03;0.03;;;19.40;49.90;;;;;;5033895;28;20197;-57
2023/08/31 06:45:24;;;;;;;0.10;0.10;;;19.40;50.50;;;;;;5051151;28;20195;-58
2023/08/31 06:47:54;;;;;;;0.00;0.00;;;19.30;49.80;;;;;;5051633;28;20306;-56
2023/08/31 06:50:25;;;;;;;0.00;0.00;;;19.30;50.10;;;;;;5052440;28;20270;-58
2023/08/31 06:52:55;;;;;;;0.03;0.03;;;19.30;49.80;;;;;;5052498;28;20257;-57
2023/08/31 06:55:26;;;;;;;0.10;0.10;;;19.20;49.90;;;;;;5052317;28;20237;-57
2023/08/31 06:57:58;;;;;;;0.10;0.10;;;19.20;49.90;;;;;;5052329;28;20219;-57
2023/08/31 07:00:29;;;;;;;0.00;0.00;;;19.20;49.80;;;;;;5052235;28;20204;-56
2023/08/31 07:02:59;;;;;;;0.10;0.10;;;19.20;49.90;;;;;;5051438;28;20196;-58
2023/08/31 07:05:30;;;;;;;0.10;0.10;;;19.20;49.90;;;;;;5051879;28;20391;-58
2023/08/31 07:08:01;;;;;;;0.00;0.00;;;19.20;49.90;;;;;;5052111;28;20732;-57
2023/08/31 07:10:31;;;;;;;0.08;0.08;;;19.10;49.70;;;;;;5052144;28;20230;-58
2023/08/31 07:13:03;;;;;;;0.10;0.10;;;19.10;49.70;;;;;;5050718;28;20192;-56
2023/08/31 07:15:34;;;;;;;0.10;0.10;;;19.10;49.70;;;;;;5051835;28;20196;-58
2023/08/31 07:18:05;;;;;;;0.00;0.00;;;19.10;49.60;;;;;;5042229;28;20288;-58
2023/08/31 07:20:35;;;;;;;0.10;0.10;;;19.10;50.20;;;;;;5052047;28;20200;-58
2023/08/31 07:23:06;;;;;;;0.00;0.00;;;19.00;49.50;;;;;;5051613;28;20200;-57
2023/08/31 07:25:36;;;;;;;0.10;0.10;;;19.00;49.50;;;;;;5051464;28;20246;-58
2023/08/31 07:28:09;;;;;;;0.00;0.00;;;19.00;49.50;;;;;;5052031;28;20219;-58
2023/08/31 07:30:40;;;;;;;0.10;0.10;;;19.00;49.50;;;;;;5051316;28;20230;-58
2023/08/31 07:33:10;;;;;;;0.10;0.10;;;18.90;49.40;;;;;;5044291;28;20613;-57
2023/08/31 07:35:41;;;;;;;0.00;0.00;;;18.90;49.40;;;;;;5051125;28;20245;-56
2023/08/31 07:38:11;;;;;;;0.03;0.03;;;18.90;49.50;;;;;;5045585;28;20274;-57
2023/08/31 07:40:42;;;;;;;0.00;0.00;;;18.90;49.50;;;;;;5047772;28;20245;-58
2023/08/31 07:43:14;;;;;;;0.10;0.10;;;18.90;49.50;;;;;;5039749;28;20269;-57
2023/08/31 07:45:45;;;;;;;0.10;0.10;;;18.80;49.50;;;;;;5040607;28;20209;-57
2023/08/31 07:48:15;;;;;;;0.10;0.10;;;18.80;49.40;;;;;;5029903;28;20224;-56
2023/08/31 07:50:46;;;;;;;0.10;0.10;;;18.80;49.50;;;;;;5031263;28;20281;-56
2023/08/31 07:53:17;;;;;;;0.00;0.00;;;18.80;49.40;;;;;;5033060;28;20254;-54
2023/08/31 07:55:56;;;;;;;0.10;0.10;;;18.80;49.40;;;;;;5051176;28;20654;-55
2023/08/31 07:58:28;;;;;;;0.10;0.10;;;18.80;49.40;;;;;;5050948;28;20207;-56
2023/08/31 08:00:59;;;;;;;0.10;0.10;;;18.80;49.40;;;;;;5051667;28;20249;-57
2023/08/31 08:03:30;;;;;;;0.00;0.00;;;18.70;49.40;;;;;;5050598;28;20228;-58
2023/08/31 08:06:00;;;;;;;0.05;0.05;;;18.70;49.40;;;;;;5050845;28;20195;-56
2023/08/31 08:08:31;;;;;;;0.10;0.10;;;18.70;49.40;;;;;;5051125;28;20655;-58
2023/08/31 08:11:02;;;;;;;0.10;0.10;;;18.70;49.40;;;;;;5051157;28;20223;-55
2023/08/31 08:13:35;;;;;;;0.10;0.10;;;18.60;49.40;;;;;;5051295;28;20199;-56
2023/08/31 08:16:05;;;;;;;0.10;0.10;;;18.60;49.40;;;;;;5034481;28;20266;-58
2023/08/31 08:18:36;;;;;;;0.10;0.10;;;18.60;49.50;;;;;;5030676;28;20196;-57
2023/08/31 08:21:06;;;;;;;0.00;0.00;;;18.60;49.50;;;;;;5043849;28;20191;-54
2023/08/31 08:23:37;;;;;;;0.00;0.00;;;18.60;49.50;;;;;;5051183;28;20253;-56
2023/08/31 08:26:08;;;;;;;0.10;0.10;;;18.60;49.50;;;;;;5047553;28;20265;-56
2023/08/31 08:28:40;;;;;;;0.05;0.05;;;18.50;49.50;;;;;;5049819;28;20196;-57
2023/08/31 08:31:11;;;;;;;0.00;0.00;;;18.50;49.50;;;;;;5049236;28;20231;-57
2023/08/31 08:33:42;;;;;;;0.15;0.15;;;18.50;50.10;;;;;;5037286;28;20196;-55
2023/08/31 08:36:13;;;;;;;0.00;0.00;;;18.50;49.50;;;;;;5030888;28;20219;-56
2023/08/31 08:38:43;;;;;;;0.00;0.00;;;18.50;49.50;;;;;;5044571;28;20227;-54
2023/08/31 08:41:14;;;;;;;0.05;0.05;;;18.40;49.40;;;;;;5051035;28;20199;-54
2023/08/31 08:43:49;;;;;;;0.10;0.10;;;18.40;49.40;;;;;;5051143;28;20610;-56
2023/08/31 08:46:19;;;;;;;0.10;0.10;;;18.40;49.40;;;;;;5047596;28;20269;-56
2023/08/31 08:48:51;;;;;;;0.08;0.08;;;18.30;49.40;;;;;;5050866;28;20208;-58
2023/08/31 08:51:22;;;;;;;0.00;0.00;;;18.40;49.40;;;;;;5050796;28;20756;-53
2023/08/31 08:53:55;;;;;;;0.10;0.10;;;18.30;49.40;;;;;;5050729;28;20226;-55
2023/08/31 08:56:26;;;;;;;0.10;0.10;;;18.30;49.40;;;;;;5050783;28;20223;-57
2023/08/31 08:58:58;;;;;;;0.00;0.00;;;18.30;49.40;;;;;;5052508;28;20291;-57
2023/08/31 09:01:29;;;;;;;0.00;0.00;;;18.30;49.40;;;;;;5064981;22;20234;-47
2023/08/31 09:04:00;;;;;;;0.10;0.10;;;18.20;49.40;;;;;;5054296;28;20250;-47
2023/08/31 09:06:31;;;;;;;0.10;0.10;;;18.20;49.50;;;;;;5054206;28;20216;-47
2023/08/31 09:09:02;;;;;;;0.00;0.00;;;18.20;49.50;;;;;;5054659;28;20199;-47
2023/08/31 09:11:33;;;;;;;0.10;0.10;;;18.20;49.50;;;;;;5054557;28;20260;-48
2023/08/31 09:14:17;;;;;;;0.10;0.10;;;18.20;49.50;;;;;;5054690;28;20655;-46
2023/08/31 09:16:49;;;;;;;0.00;0.00;;;18.10;49.50;;;;;;5053644;28;20223;-47
2023/08/31 09:19:23;;;;;;;0.08;0.08;;;18.10;49.50;;;;;;5054337;28;20200;-47
2023/08/31 09:21:54;;;;;;;0.00;0.00;;;18.10;49.50;;;;;;5053810;28;20678;-47
2023/08/31 09:24:25;;;;;;;0.10;0.10;;;18.00;49.50;;;;;;5053932;28;20196;-47
2023/08/31 09:26:58;;;;;;;0.00;0.00;;;18.00;49.50;;;;;;5053733;28;20273;-47
2023/08/31 09:29:30;;;;;;;0.03;0.03;;;18.00;49.50;;;;;;5053473;28;20203;-47
2023/08/31 09:32:01;;;;;;;0.00;0.00;;;18.00;49.50;;;;;;5052919;28;20276;-47
2023/08/31 09:34:38;;;;;;;0.00;0.00;;;18.00;49.50;;;;;;5052006;28;20188;-48
2023/08/31 09:37:10;;;;;;;0.08;0.08;;;17.90;49.50;;;;;;5053902;28;20223;-47
2023/08/31 09:39:42;;;;;;;0.00;0.00;;;18.00;49.60;;;;;;5053380;28;20191;-47
2023/08/31 09:42:12;;;;;;;0.00;0.00;;;17.90;49.60;;;;;;5053682;28;20203;-47
2023/08/31 09:44:51;;;;;;;0.03;0.03;;;17.90;49.60;;;;;;5053438;28;20199;-47
2023/08/31 09:47:23;;;;;;;0.00;0.00;;;17.90;49.60;;;;;;5052874;28;20288;-47
2023/08/31 09:49:54;;;;;;;0.10;0.10;;;17.90;49.60;;;;;;5053619;28;20203;-47
2023/08/31 09:52:25;;;;;;;0.00;0.00;;;17.90;49.70;;;;;;5053611;28;20249;-47
2023/08/31 09:54:57;;;;;;;0.10;0.10;;;17.90;49.70;;;;;;5053374;28;20245;-47
2023/08/31 09:57:28;;;;;;;0.00;0.00;;;17.80;49.60;;;;;;5053602;28;20266;-49
2023/08/31 10:00:02;;;;;;;0.10;0.10;;;17.80;49.60;;;;;;5065466;22;20223;-57
2023/08/31 10:02:34;;;;;;;0.10;0.10;;;17.80;49.60;;;;;;5033224;28;20204;-56
2023/08/31 10:05:05;;;;;;;0.10;0.10;;;17.80;49.60;;;;;;5033572;28;20200;-53
2023/08/31 10:07:36;;;;;;;0.00;0.00;;;17.80;49.60;;;;;;5033504;28;20274;-56
2023/08/31 10:10:07;;;;;;;0.10;0.10;;;17.70;49.60;;;;;;5032690;28;20197;-57
2023/08/31 10:12:40;;;;;;;0.10;0.10;;;17.70;49.60;;;;;;5033386;28;20208;-57
2023/08/31 10:15:14;;;;;;;0.00;0.00;;;17.70;49.60;;;;;;5035329;28;20196;-57
2023/08/31 10:17:44;;;;;;;0.08;0.08;;;17.70;49.60;;;;;;5053285;28;20211;-52
2023/08/31 10:20:17;;;;;;;0.10;0.10;;;17.70;49.60;;;;;;5053246;28;20277;-56
2023/08/31 10:22:48;;;;;;;0.00;0.00;;;17.70;49.60;;;;;;5051923;28;20195;-53
2023/08/31 10:25:19;;;;;;;0.00;0.00;;;17.60;49.70;;;;;;5034004;28;20250;-54
2023/08/31 10:27:50;;;;;;;0.10;0.10;;;17.60;49.70;;;;;;5032912;28;20274;-56
2023/08/31 10:30:30;;;;;;;0.03;0.03;;;17.60;49.70;;;;;;5034360;28;20196;-56
2023/08/31 10:33:24;;;;;;;0.00;0.00;;;17.60;49.70;;;;;;5053309;28;20195;-57
2023/08/31 10:35:57;;;;;;;0.00;0.00;;;17.60;49.70;;;;;;5052812;28;20192;-55
2023/08/31 10:38:30;;;;;;;0.00;0.00;;;17.60;49.70;;;;;;5052479;28;20196;-54
2023/08/31 10:41:21;;;;;;;0.00;0.00;;;17.50;49.60;;;;;;5052484;28;20217;-54
2023/08/31 10:43:53;;;;;;;0.00;0.00;;;17.50;49.70;;;;;;5052930;28;20203;-52
2023/08/31 10:46:34;;;;;;;0.08;0.08;;;17.50;49.60;;;;;;5051938;28;20219;-58
2023/08/31 10:49:14;;;;;;;0.00;0.00;;;17.50;49.60;;;;;;5052532;28;20195;-54
2023/08/31 10:51:47;;;;;;;0.00;0.00;;;17.50;49.60;;;;;;5052184;28;20226;-52
2023/08/31 10:54:24;;;;;;;0.00;0.00;;;17.50;49.60;;;;;;5051264;28;20191;-55
2023/08/31 10:57:08;;;;;;;0.10;0.10;;;17.40;49.60;;;;;;5062527;28;20279;-54
2023/08/31 10:59:52;;;;;;;0.00;0.00;;;17.40;49.60;;;;;;5072641;28;20194;-55
2023/08/31 11:02:36;;;;;;;0.00;0.00;;;17.40;49.60;;;;;;5053690;28;20257;-52
2023/08/31 11:05:11;;;;;;;0.00;0.00;;;17.40;49.70;;;;;;5052497;28;20195;-54
2023/08/31 11:07:42;;;;;;;0.03;0.03;;;17.30;49.60;;;;;;5052038;28;20272;-58
2023/08/31 11:10:18;;;;;;;0.10;0.10;;;17.40;49.70;;;;;;5052090;28;20555;-55
2023/08/31 11:12:49;;;;;;;0.10;0.10;;;17.30;49.70;;;;;;5052485;28;20221;-53
2023/08/31 11:15:21;;;;;;;0.10;0.10;;;17.30;49.70;;;;;;5052280;28;20199;-51
2023/08/31 11:17:54;;;;;;;0.10;0.10;;;17.30;49.70;;;;;;5051865;28;20363;-57
2023/08/31 11:20:27;;;;;;;0.00;0.00;;;17.30;49.70;;;;;;5052337;28;20191;-55
2023/08/31 11:22:58;;;;;;;0.10;0.10;;;17.30;49.70;;;;;;5051033;28;20214;-52
2023/08/31 11:25:29;;;;;;;0.10;0.10;;;17.20;49.70;;;;;;5051133;28;20233;-54
2023/08/31 11:28:00;;;;;;;0.10;0.10;;;17.20;49.70;;;;;;5051599;28;20269;-54
2023/08/31 11:30:32;;;;;;;0.00;0.00;;;17.20;49.60;;;;;;5051570;28;20249;-52
2023/08/31 11:33:08;;;;;;;0.10;0.10;;;17.20;49.60;;;;;;5050822;28;20201;-54
2023/08/31 11:35:40;;;;;;;0.00;0.00;;;17.20;49.60;;;;;;5031835;28;20273;-56
2023/08/31 11:38:11;;;;;;;0.10;0.10;;;17.20;49.70;;;;;;5031622;28;20247;-54
2023/08/31 11:40:42;;;;;;;0.10;0.10;;;17.20;49.60;;;;;;5031510;28;20200;-58
2023/08/31 11:43:13;;;;;;;0.10;0.10;;;17.20;49.70;;;;;;5031842;28;20250;-58
2023/08/31 11:45:44;;;;;;;0.10;0.10;;;17.10;49.60;;;;;;5031662;28;20196;-54
2023/08/31 11:48:17;;;;;;;0.10;0.10;;;17.10;49.60;;;;;;5031447;28;20211;-56
2023/08/31 11:50:48;;;;;;;0.10;0.10;;;17.10;49.60;;;;;;5032012;28;20200;-57
2023/08/31 11:53:18;;;;;;;0.10;0.10;;;17.10;49.60;;;;;;5031144;28;20200;-56
2023/08/31 11:55:55;;;;;;;0.10;0.10;;;17.10;49.60;;;;;;5031007;28;20196;-52
2023/08/31 11:58:28;;;;;;;0.05;0.05;;;17.10;49.70;;;;;;5031150;28;20196;-55
2023/08/31 12:01:03;;;;;;;0.10;0.10;;;17.10;49.70;;;;;;5038857;28;20215;-55
2023/08/31 12:03:46;;;;;;;0.10;0.10;;;17.00;49.60;;;;;;5051743;28;20199;-56
2023/08/31 12:06:20;;;;;;;0.00;0.00;;;17.00;49.60;;;;;;5051247;28;20314;-56
2023/08/31 12:08:51;;;;;;;0.10;0.10;;;17.00;49.60;;;;;;5051131;28;20222;-52
2023/08/31 12:11:23;;;;;;;0.10;0.10;;;17.00;49.60;;;;;;5050861;28;20207;-54
2023/08/31 12:13:54;;;;;;;0.00;0.00;;;16.90;49.60;;;;;;5051559;28;20196;-54
2023/08/31 12:16:26;;;;;;;0.05;0.05;;;16.90;49.60;;;;;;5051478;28;20219;-49
2023/08/31 12:19:02;;;;;;;0.00;0.00;;;16.90;49.60;;;;;;5051670;28;20692;-56
2023/08/31 12:21:33;;;;;;;0.00;0.00;;;16.90;49.50;;;;;;5051521;28;20191;-49
2023/08/31 12:24:04;;;;;;;0.00;0.00;;;16.90;49.60;;;;;;5051491;28;20620;-56
2023/08/31 12:26:35;;;;;;;0.00;0.00;;;16.90;49.60;;;;;;5051367;28;20219;-55
2023/08/31 12:29:06;;;;;;;0.10;0.10;;;16.90;49.60;;;;;;5051435;28;20238;-52
2023/08/31 12:31:37;;;;;;;0.10;0.10;;;16.90;49.70;;;;;;5051651;28;20669;-57
2023/08/31 12:34:09;;;;;;;0.08;0.08;;;16.80;49.60;;;;;;5053483;28;20203;-56
2023/08/31 12:36:40;;;;;;;0.10;0.10;;;16.80;49.60;;;;;;5055217;28;20220;-55
2023/08/31 12:39:11;;;;;;;0.00;0.00;;;16.80;49.60;;;;;;5055492;28;20195;-50
2023/08/31 12:41:42;;;;;;;0.10;0.10;;;16.80;49.60;;;;;;5055132;28;20199;-53
2023/08/31 12:44:13;;;;;;;0.10;0.10;;;16.80;49.60;;;;;;5054589;28;20196;-55
2023/08/31 12:46:43;;;;;;;0.10;0.10;;;16.80;49.60;;;;;;5054953;28;20215;-55
2023/08/31 12:49:16;;;;;;;0.00;0.00;;;16.70;49.50;;;;;;5055157;28;20732;-56
2023/08/31 12:51:46;;;;;;;0.00;0.00;;;16.70;49.60;;;;;;5054988;28;20276;-56
2023/08/31 12:54:17;;;;;;;0.10;0.10;;;16.70;49.60;;;;;;5054936;28;20200;-55
2023/08/31 12:56:47;;;;;;;0.10;0.10;;;16.70;49.50;;;;;;5055384;28;20273;-53
2023/08/31 12:59:27;;;;;;;0.00;0.00;;;16.70;49.50;;;;;;5054692;28;20261;-54
2023/08/31 13:01:57;;;;;;;0.10;0.10;;;16.70;49.50;;;;;;5054620;28;20199;-58
2023/08/31 13:04:30;;;;;;;0.10;0.10;;;16.70;49.50;;;;;;5054845;28;20536;-57
2023/08/31 13:07:00;;;;;;;0.00;0.00;;;16.60;49.50;;;;;;5054440;28;20219;-54
2023/08/31 13:09:31;;;;;;;0.10;0.10;;;16.60;49.50;;;;;;5054216;28;20253;-52
2023/08/31 13:12:02;;;;;;;0.05;0.05;;;16.60;49.50;;;;;;5054270;28;20233;-54